sensor_id;sensor_type;location;lat;lon;timestamp;P1;durP1;ratioP1;P2;durP2;ratioP2
75423;SDS011;64005;55.160;36.002;2023-05-17T00:01:03;2.30;;;0.82;;
75423;SDS011;64005;55.160;36.002;2023-05-17T00:03:31;3.70;;;0.98;;
75423;SDS011;64005;55.160;36.002;2023-05-17T00:05:58;3.72;;;1.13;;
75423;SDS011;64005;55.160;36.002;2023-05-17T00:08:26;4.65;;;1.25;;
75423;SDS011;64005;55.160;36.002;2023-05-17T00:10:53;5.20;;;1.30;;
75423;SDS011;64005;55.160;36.002;2023-05-17T00:13:21;3.17;;;1.10;;
75423;SDS011;64005;55.160;36.002;2023-05-17T00:15:50;4.78;;;1.50;;
75423;SDS011;64005;55.160;36.002;2023-05-17T00:18:17;2.72;;;1.00;;
75423;SDS011;64005;55.160;36.002;2023-05-17T00:20:45;3.15;;;0.80;;
75423;SDS011;64005;55.160;36.002;2023-05-17T00:23:12;4.20;;;1.10;;
75423;SDS011;64005;55.160;36.002;2023-05-17T00:25:39;3.95;;;1.10;;
75423;SDS011;64005;55.160;36.002;2023-05-17T00:28:07;2.28;;;0.90;;
75423;SDS011;64005;55.160;36.002;2023-05-17T00:30:35;2.70;;;1.00;;
75423;SDS011;64005;55.160;36.002;2023-05-17T00:33:04;3.53;;;1.30;;
75423;SDS011;64005;55.160;36.002;2023-05-17T00:35:31;2.38;;;0.88;;
75423;SDS011;64005;55.160;36.002;2023-05-17T00:37:59;3.67;;;1.20;;
75423;SDS011;64005;55.160;36.002;2023-05-17T00:40:26;3.95;;;0.90;;
75423;SDS011;64005;55.160;36.002;2023-05-17T00:42:54;4.30;;;0.93;;
75423;SDS011;64005;55.160;36.002;2023-05-17T00:45:22;6.07;;;1.35;;
75423;SDS011;64005;55.160;36.002;2023-05-17T00:47:49;2.72;;;1.00;;
75423;SDS011;64005;55.160;36.002;2023-05-17T00:50:18;2.28;;;0.90;;
75423;SDS011;64005;55.160;36.002;2023-05-17T00:52:46;2.97;;;1.20;;
75423;SDS011;64005;55.160;36.002;2023-05-17T00:55:14;2.35;;;0.90;;
75423;SDS011;64005;55.160;36.002;2023-05-17T00:57:44;3.28;;;1.15;;
75423;SDS011;64005;55.160;36.002;2023-05-17T01:00:12;3.13;;;1.05;;
75423;SDS011;64005;55.160;36.002;2023-05-17T01:02:40;3.60;;;1.17;;
75423;SDS011;64005;55.160;36.002;2023-05-17T01:05:09;3.47;;;1.50;;
75423;SDS011;64005;55.160;36.002;2023-05-17T01:07:38;4.18;;;1.33;;
75423;SDS011;64005;55.160;36.002;2023-05-17T01:10:06;4.05;;;1.50;;
75423;SDS011;64005;55.160;36.002;2023-05-17T01:12:37;8.85;;;1.85;;
75423;SDS011;64005;55.160;36.002;2023-05-17T01:15:18;5.80;;;1.90;;
75423;SDS011;64005;55.160;36.002;2023-05-17T01:17:53;5.00;;;2.00;;
75423;SDS011;64005;55.160;36.002;2023-05-17T01:20:30;5.78;;;1.90;;
75423;SDS011;64005;55.160;36.002;2023-05-17T01:23:09;7.50;;;2.13;;
75423;SDS011;64005;55.160;36.002;2023-05-17T01:25:51;10.00;;;2.53;;
75423;SDS011;64005;55.160;36.002;2023-05-17T01:28:32;6.70;;;2.22;;
75423;SDS011;64005;55.160;36.002;2023-05-17T01:31:02;8.20;;;2.10;;
75423;SDS011;64005;55.160;36.002;2023-05-17T01:33:30;10.70;;;2.05;;
75423;SDS011;64005;55.160;36.002;2023-05-17T01:35:58;5.53;;;2.13;;
75423;SDS011;64005;55.160;36.002;2023-05-17T01:38:26;7.72;;;2.00;;
75423;SDS011;64005;55.160;36.002;2023-05-17T01:40:54;6.43;;;2.10;;
75423;SDS011;64005;55.160;36.002;2023-05-17T01:43:30;7.82;;;2.20;;
75423;SDS011;64005;55.160;36.002;2023-05-17T01:46:06;6.55;;;1.80;;
75423;SDS011;64005;55.160;36.002;2023-05-17T01:48:40;10.52;;;2.10;;
75423;SDS011;64005;55.160;36.002;2023-05-17T01:51:16;8.52;;;2.08;;
75423;SDS011;64005;55.160;36.002;2023-05-17T01:53:47;8.60;;;2.13;;
75423;SDS011;64005;55.160;36.002;2023-05-17T01:56:24;5.78;;;1.90;;
75423;SDS011;64005;55.160;36.002;2023-05-17T01:58:56;3.55;;;1.45;;
75423;SDS011;64005;55.160;36.002;2023-05-17T02:01:26;4.15;;;1.67;;
75423;SDS011;64005;55.160;36.002;2023-05-17T02:03:57;7.93;;;1.60;;
75423;SDS011;64005;55.160;36.002;2023-05-17T02:06:25;4.80;;;1.80;;
75423;SDS011;64005;55.160;36.002;2023-05-17T02:08:53;5.82;;;2.10;;
75423;SDS011;64005;55.160;36.002;2023-05-17T02:11:20;4.25;;;1.60;;
75423;SDS011;64005;55.160;36.002;2023-05-17T02:13:47;4.38;;;1.50;;
75423;SDS011;64005;55.160;36.002;2023-05-17T02:16:16;5.28;;;1.55;;
75423;SDS011;64005;55.160;36.002;2023-05-17T02:18:44;3.67;;;1.70;;
75423;SDS011;64005;55.160;36.002;2023-05-17T02:21:11;5.28;;;1.85;;
75423;SDS011;64005;55.160;36.002;2023-05-17T02:23:39;7.50;;;1.88;;
75423;SDS011;64005;55.160;36.002;2023-05-17T02:26:06;7.05;;;1.60;;
75423;SDS011;64005;55.160;36.002;2023-05-17T02:28:34;5.85;;;1.63;;
75423;SDS011;64005;55.160;36.002;2023-05-17T02:31:01;5.40;;;1.70;;
75423;SDS011;64005;55.160;36.002;2023-05-17T02:33:30;4.60;;;1.75;;
75423;SDS011;64005;55.160;36.002;2023-05-17T02:35:57;8.13;;;1.60;;
75423;SDS011;64005;55.160;36.002;2023-05-17T02:38:25;8.55;;;1.90;;
75423;SDS011;64005;55.160;36.002;2023-05-17T02:40:52;4.43;;;1.70;;
75423;SDS011;64005;55.160;36.002;2023-05-17T02:43:20;7.22;;;1.80;;
75423;SDS011;64005;55.160;36.002;2023-05-17T02:45:47;5.78;;;1.60;;
75423;SDS011;64005;55.160;36.002;2023-05-17T02:48:15;5.80;;;1.50;;
75423;SDS011;64005;55.160;36.002;2023-05-17T02:53:22;5.78;;;1.60;;
75423;SDS011;64005;55.160;36.002;2023-05-17T02:55:50;5.10;;;1.83;;
75423;SDS011;64005;55.160;36.002;2023-05-17T02:58:17;5.05;;;1.65;;
75423;SDS011;64005;55.160;36.002;2023-05-17T03:00:45;7.07;;;2.15;;
75423;SDS011;64005;55.160;36.002;2023-05-17T03:08:19;8.68;;;1.60;;
75423;SDS011;64005;55.160;36.002;2023-05-17T03:10:47;5.65;;;1.90;;
75423;SDS011;64005;55.160;36.002;2023-05-17T03:13:15;5.05;;;1.85;;
75423;SDS011;64005;55.160;36.002;2023-05-17T03:15:43;4.75;;;1.42;;
75423;SDS011;64005;55.160;36.002;2023-05-17T03:18:10;6.07;;;1.73;;
75423;SDS011;64005;55.160;36.002;2023-05-17T03:20:38;5.25;;;1.80;;
75423;SDS011;64005;55.160;36.002;2023-05-17T03:23:05;5.20;;;1.60;;
75423;SDS011;64005;55.160;36.002;2023-05-17T03:25:34;5.97;;;1.85;;
75423;SDS011;64005;55.160;36.002;2023-05-17T03:28:02;4.93;;;1.73;;
75423;SDS011;64005;55.160;36.002;2023-05-17T03:30:29;5.15;;;2.00;;
75423;SDS011;64005;55.160;36.002;2023-05-17T03:32:57;6.72;;;2.53;;
75423;SDS011;64005;55.160;36.002;2023-05-17T04:26:46;4.07;;;1.10;;
75423;SDS011;64005;55.160;36.002;2023-05-17T04:29:14;2.70;;;1.20;;
75423;SDS011;64005;55.160;36.002;2023-05-17T04:31:41;6.75;;;1.40;;
75423;SDS011;64005;55.160;36.002;2023-05-17T04:34:11;3.70;;;1.20;;
75423;SDS011;64005;55.160;36.002;2023-05-17T04:36:39;3.50;;;1.10;;
75423;SDS011;64005;55.160;36.002;2023-05-17T04:39:06;4.90;;;1.20;;
75423;SDS011;64005;55.160;36.002;2023-05-17T04:41:34;4.75;;;1.17;;
75423;SDS011;64005;55.160;36.002;2023-05-17T04:44:04;4.25;;;1.08;;
75423;SDS011;64005;55.160;36.002;2023-05-17T04:46:32;5.55;;;1.00;;
75423;SDS011;64005;55.160;36.002;2023-05-17T04:48:59;3.63;;;1.17;;
75423;SDS011;64005;55.160;36.002;2023-05-17T04:51:29;4.80;;;1.20;;
75423;SDS011;64005;55.160;36.002;2023-05-17T04:53:56;3.42;;;1.05;;
75423;SDS011;64005;55.160;36.002;2023-05-17T05:07:14;2.58;;;0.88;;
75423;SDS011;64005;55.160;36.002;2023-05-17T05:09:42;3.40;;;1.08;;
75423;SDS011;64005;55.160;36.002;2023-05-17T05:14:44;2.08;;;0.70;;
75423;SDS011;64005;55.160;36.002;2023-05-17T05:41:48;4.07;;;0.90;;
75423;SDS011;64005;55.160;36.002;2023-05-17T05:44:17;2.28;;;0.75;;
75423;SDS011;64005;55.160;36.002;2023-05-17T05:49:21;4.05;;;1.02;;
75423;SDS011;64005;55.160;36.002;2023-05-17T05:54:24;4.53;;;0.88;;
75423;SDS011;64005;55.160;36.002;2023-05-17T05:59:28;2.03;;;0.65;;
75423;SDS011;64005;55.160;36.002;2023-05-17T06:10:23;3.10;;;0.80;;
75423;SDS011;64005;55.160;36.002;2023-05-17T06:20:38;4.07;;;0.88;;
75423;SDS011;64005;55.160;36.002;2023-05-17T06:23:07;3.30;;;0.90;;
75423;SDS011;64005;55.160;36.002;2023-05-17T07:21:30;3.25;;;0.90;;
75423;SDS011;64005;55.160;36.002;2023-05-17T07:23:59;4.30;;;1.08;;
75423;SDS011;64005;55.160;36.002;2023-05-17T08:01:07;3.47;;;0.75;;
75423;SDS011;64005;55.160;36.002;2023-05-17T08:42:05;2.95;;;0.93;;
75423;SDS011;64005;55.160;36.002;2023-05-17T08:44:34;3.88;;;0.90;;
75423;SDS011;64005;55.160;36.002;2023-05-17T08:47:03;2.22;;;0.85;;
75423;SDS011;64005;55.160;36.002;2023-05-17T09:00:02;6.82;;;1.13;;
75423;SDS011;64005;55.160;36.002;2023-05-17T09:02:37;3.63;;;1.30;;
75423;SDS011;64005;55.160;36.002;2023-05-17T09:59:40;3.42;;;1.10;;
75423;SDS011;64005;55.160;36.002;2023-05-17T10:18:23;4.50;;;0.95;;
75423;SDS011;64005;55.160;36.002;2023-05-17T11:26:58;4.93;;;1.00;;
75423;SDS011;64005;55.160;36.002;2023-05-17T12:37:16;3.83;;;1.00;;
75423;SDS011;64005;55.160;36.002;2023-05-17T12:42:20;3.72;;;0.93;;
75423;SDS011;64005;55.160;36.002;2023-05-17T12:44:48;4.40;;;1.00;;
75423;SDS011;64005;55.160;36.002;2023-05-17T12:47:16;2.78;;;0.70;;
75423;SDS011;64005;55.160;36.002;2023-05-17T12:49:52;3.20;;;0.80;;
75423;SDS011;64005;55.160;36.002;2023-05-17T14:36:07;3.28;;;0.80;;
75423;SDS011;64005;55.160;36.002;2023-05-17T14:44:16;2.47;;;0.90;;
75423;SDS011;64005;55.160;36.002;2023-05-17T14:49:58;4.80;;;1.17;;
75423;SDS011;64005;55.160;36.002;2023-05-17T14:52:27;3.47;;;0.93;;
75423;SDS011;64005;55.160;36.002;2023-05-17T15:15:38;5.00;;;1.75;;
75423;SDS011;64005;55.160;36.002;2023-05-17T16:30:18;3.08;;;1.27;;
75423;SDS011;64005;55.160;36.002;2023-05-17T16:35:42;5.55;;;0.90;;
75423;SDS011;64005;55.160;36.002;2023-05-17T16:38:09;5.18;;;1.08;;
75423;SDS011;64005;55.160;36.002;2023-05-17T16:40:37;6.32;;;1.02;;
75423;SDS011;64005;55.160;36.002;2023-05-17T16:43:05;4.65;;;1.00;;
75423;SDS011;64005;55.160;36.002;2023-05-17T16:45:34;4.47;;;1.02;;
75423;SDS011;64005;55.160;36.002;2023-05-17T16:48:02;2.08;;;0.75;;
75423;SDS011;64005;55.160;36.002;2023-05-17T16:50:30;5.80;;;1.00;;
75423;SDS011;64005;55.160;36.002;2023-05-17T16:52:57;5.50;;;1.08;;
75423;SDS011;64005;55.160;36.002;2023-05-17T16:55:25;4.90;;;1.00;;
75423;SDS011;64005;55.160;36.002;2023-05-17T16:57:52;2.60;;;1.02;;
75423;SDS011;64005;55.160;36.002;2023-05-17T17:00:20;4.28;;;1.60;;
75423;SDS011;64005;55.160;36.002;2023-05-17T17:02:49;4.63;;;1.08;;
75423;SDS011;64005;55.160;36.002;2023-05-17T17:05:17;5.53;;;1.00;;
75423;SDS011;64005;55.160;36.002;2023-05-17T17:07:44;6.68;;;1.20;;
75423;SDS011;64005;55.160;36.002;2023-05-17T17:10:12;2.78;;;1.17;;
75423;SDS011;64005;55.160;36.002;2023-05-17T17:12:40;2.60;;;1.00;;
75423;SDS011;64005;55.160;36.002;2023-05-17T17:15:07;8.00;;;1.13;;
75423;SDS011;64005;55.160;36.002;2023-05-17T17:17:36;4.25;;;1.15;;
75423;SDS011;64005;55.160;36.002;2023-05-17T17:20:05;3.67;;;1.33;;
75423;SDS011;64005;55.160;36.002;2023-05-17T17:22:34;6.70;;;1.08;;
75423;SDS011;64005;55.160;36.002;2023-05-17T17:25:01;4.13;;;1.10;;
75423;SDS011;64005;55.160;36.002;2023-05-17T17:27:30;5.95;;;1.23;;
75423;SDS011;64005;55.160;36.002;2023-05-17T17:29:59;4.05;;;1.02;;
75423;SDS011;64005;55.160;36.002;2023-05-17T17:32:31;2.63;;;0.93;;
75423;SDS011;64005;55.160;36.002;2023-05-17T17:34:58;4.57;;;1.10;;
75423;SDS011;64005;55.160;36.002;2023-05-17T17:37:27;3.22;;;1.00;;
75423;SDS011;64005;55.160;36.002;2023-05-17T17:39:55;3.10;;;0.70;;
75423;SDS011;64005;55.160;36.002;2023-05-17T17:42:22;4.28;;;1.20;;
75423;SDS011;64005;55.160;36.002;2023-05-17T17:44:50;4.68;;;1.10;;
75423;SDS011;64005;55.160;36.002;2023-05-17T17:47:17;4.18;;;1.30;;
75423;SDS011;64005;55.160;36.002;2023-05-17T17:49:45;3.75;;;1.15;;
75423;SDS011;64005;55.160;36.002;2023-05-17T17:52:12;6.05;;;1.02;;
75423;SDS011;64005;55.160;36.002;2023-05-17T17:54:41;2.30;;;0.88;;
75423;SDS011;64005;55.160;36.002;2023-05-17T17:57:09;3.65;;;1.10;;
75423;SDS011;64005;55.160;36.002;2023-05-17T17:59:36;3.88;;;1.20;;
75423;SDS011;64005;55.160;36.002;2023-05-17T18:02:04;3.90;;;1.20;;
75423;SDS011;64005;55.160;36.002;2023-05-17T18:04:31;3.78;;;1.10;;
75423;SDS011;64005;55.160;36.002;2023-05-17T18:06:59;5.70;;;1.08;;
75423;SDS011;64005;55.160;36.002;2023-05-17T18:09:27;4.47;;;1.10;;
75423;SDS011;64005;55.160;36.002;2023-05-17T18:11:56;4.00;;;1.00;;
75423;SDS011;64005;55.160;36.002;2023-05-17T18:14:24;3.50;;;1.20;;
75423;SDS011;64005;55.160;36.002;2023-05-17T18:16:51;2.63;;;1.00;;
75423;SDS011;64005;55.160;36.002;2023-05-17T18:19:19;3.33;;;1.40;;
75423;SDS011;64005;55.160;36.002;2023-05-17T18:21:46;3.60;;;1.35;;
75423;SDS011;64005;55.160;36.002;2023-05-17T18:24:15;4.05;;;1.00;;
75423;SDS011;64005;55.160;36.002;2023-05-17T18:26:42;5.07;;;1.27;;
75423;SDS011;64005;55.160;36.002;2023-05-17T18:29:12;2.88;;;1.15;;
75423;SDS011;64005;55.160;36.002;2023-05-17T18:31:39;3.90;;;1.40;;
75423;SDS011;64005;55.160;36.002;2023-05-17T18:34:07;3.20;;;1.13;;
75423;SDS011;64005;55.160;36.002;2023-05-17T18:36:35;4.60;;;1.17;;
75423;SDS011;64005;55.160;36.002;2023-05-17T18:39:02;3.50;;;1.17;;
75423;SDS011;64005;55.160;36.002;2023-05-17T18:41:30;4.55;;;1.20;;
75423;SDS011;64005;55.160;36.002;2023-05-17T18:43:58;6.25;;;1.48;;
75423;SDS011;64005;55.160;36.002;2023-05-17T18:46:29;4.20;;;1.70;;
75423;SDS011;64005;55.160;36.002;2023-05-17T18:48:56;2.67;;;1.30;;
75423;SDS011;64005;55.160;36.002;2023-05-17T18:51:24;9.77;;;1.50;;
75423;SDS011;64005;55.160;36.002;2023-05-17T18:53:52;3.78;;;1.15;;
75423;SDS011;64005;55.160;36.002;2023-05-17T18:56:19;3.05;;;1.20;;
75423;SDS011;64005;55.160;36.002;2023-05-17T18:58:49;4.05;;;1.10;;
75423;SDS011;64005;55.160;36.002;2023-05-17T19:01:17;3.42;;;1.13;;
75423;SDS011;64005;55.160;36.002;2023-05-17T19:03:47;4.15;;;1.40;;
75423;SDS011;64005;55.160;36.002;2023-05-17T19:06:15;2.60;;;1.00;;
75423;SDS011;64005;55.160;36.002;2023-05-17T19:08:43;4.22;;;1.20;;
75423;SDS011;64005;55.160;36.002;2023-05-17T19:11:11;4.75;;;1.30;;
75423;SDS011;64005;55.160;36.002;2023-05-17T19:13:38;4.30;;;1.10;;
75423;SDS011;64005;55.160;36.002;2023-05-17T19:16:06;4.85;;;1.20;;
75423;SDS011;64005;55.160;36.002;2023-05-17T19:18:34;3.67;;;1.13;;
75423;SDS011;64005;55.160;36.002;2023-05-17T19:21:03;4.97;;;1.10;;
75423;SDS011;64005;55.160;36.002;2023-05-17T19:23:31;6.53;;;1.33;;
75423;SDS011;64005;55.160;36.002;2023-05-17T19:26:00;4.53;;;1.30;;
75423;SDS011;64005;55.160;36.002;2023-05-17T19:28:28;3.47;;;1.35;;
75423;SDS011;64005;55.160;36.002;2023-05-17T19:30:59;3.42;;;1.50;;
75423;SDS011;64005;55.160;36.002;2023-05-17T19:33:28;4.60;;;1.05;;
75423;SDS011;64005;55.160;36.002;2023-05-17T19:35:56;4.53;;;1.30;;
75423;SDS011;64005;55.160;36.002;2023-05-17T19:38:25;2.97;;;1.13;;
75423;SDS011;64005;55.160;36.002;2023-05-17T19:40:53;3.47;;;1.20;;
75423;SDS011;64005;55.160;36.002;2023-05-17T19:43:20;3.80;;;1.63;;
75423;SDS011;64005;55.160;36.002;2023-05-17T19:45:48;3.55;;;1.10;;
75423;SDS011;64005;55.160;36.002;2023-05-17T19:48:15;3.63;;;1.23;;
75423;SDS011;64005;55.160;36.002;2023-05-17T19:50:43;3.72;;;1.10;;
75423;SDS011;64005;55.160;36.002;2023-05-17T19:53:10;4.03;;;2.53;;
75423;SDS011;64005;55.160;36.002;2023-05-17T19:55:39;4.28;;;1.30;;
75423;SDS011;64005;55.160;36.002;2023-05-17T19:58:06;3.85;;;1.30;;
75423;SDS011;64005;55.160;36.002;2023-05-17T20:00:34;3.30;;;1.30;;
75423;SDS011;64005;55.160;36.002;2023-05-17T20:03:02;4.32;;;1.27;;
75423;SDS011;64005;55.160;36.002;2023-05-17T20:05:31;6.22;;;1.25;;
75423;SDS011;64005;55.160;36.002;2023-05-17T20:07:58;3.08;;;1.00;;
75423;SDS011;64005;55.160;36.002;2023-05-17T20:10:27;4.28;;;1.40;;
75423;SDS011;64005;55.160;36.002;2023-05-17T20:12:57;3.92;;;1.10;;
75423;SDS011;64005;55.160;36.002;2023-05-17T20:15:24;3.45;;;1.30;;
75423;SDS011;64005;55.160;36.002;2023-05-17T20:17:52;3.25;;;0.98;;
75423;SDS011;64005;55.160;36.002;2023-05-17T20:20:20;3.38;;;1.38;;
75423;SDS011;64005;55.160;36.002;2023-05-17T20:22:47;3.38;;;1.10;;
75423;SDS011;64005;55.160;36.002;2023-05-17T20:25:15;5.85;;;1.27;;
75423;SDS011;64005;55.160;36.002;2023-05-17T20:27:43;2.95;;;1.10;;
75423;SDS011;64005;55.160;36.002;2023-05-17T20:30:12;3.25;;;1.00;;
75423;SDS011;64005;55.160;36.002;2023-05-17T20:32:40;4.95;;;1.20;;
75423;SDS011;64005;55.160;36.002;2023-05-17T20:35:07;7.07;;;1.38;;
75423;SDS011;64005;55.160;36.002;2023-05-17T20:37:35;4.55;;;1.58;;
75423;SDS011;64005;55.160;36.002;2023-05-17T20:40:03;4.00;;;1.30;;
75423;SDS011;64005;55.160;36.002;2023-05-17T20:42:33;2.40;;;0.90;;
75423;SDS011;64005;55.160;36.002;2023-05-17T20:45:02;3.80;;;1.08;;
75423;SDS011;64005;55.160;36.002;2023-05-17T20:47:33;5.20;;;1.17;;
75423;SDS011;64005;55.160;36.002;2023-05-17T20:50:01;6.38;;;1.38;;
75423;SDS011;64005;55.160;36.002;2023-05-17T20:52:30;2.95;;;1.20;;
75423;SDS011;64005;55.160;36.002;2023-05-17T20:54:58;3.25;;;1.10;;
75423;SDS011;64005;55.160;36.002;2023-05-17T20:57:25;4.03;;;1.23;;
75423;SDS011;64005;55.160;36.002;2023-05-17T20:59:53;4.38;;;1.40;;
75423;SDS011;64005;55.160;36.002;2023-05-17T21:02:22;5.43;;;1.80;;
75423;SDS011;64005;55.160;36.002;2023-05-17T21:04:52;3.97;;;1.10;;
75423;SDS011;64005;55.160;36.002;2023-05-17T21:07:20;3.70;;;1.40;;
75423;SDS011;64005;55.160;36.002;2023-05-17T21:12:17;3.30;;;1.10;;
75423;SDS011;64005;55.160;36.002;2023-05-17T21:14:45;3.50;;;1.40;;
75423;SDS011;64005;55.160;36.002;2023-05-17T21:17:12;3.75;;;1.30;;
75423;SDS011;64005;55.160;36.002;2023-05-17T21:19:40;2.75;;;1.20;;
75423;SDS011;64005;55.160;36.002;2023-05-17T21:22:09;6.10;;;1.63;;
75423;SDS011;64005;55.160;36.002;2023-05-17T21:24:36;5.57;;;1.40;;
75423;SDS011;64005;55.160;36.002;2023-05-17T21:27:04;6.05;;;1.67;;
75423;SDS011;64005;55.160;36.002;2023-05-17T21:29:31;9.05;;;1.88;;
75423;SDS011;64005;55.160;36.002;2023-05-17T21:31:59;3.97;;;1.35;;
75423;SDS011;64005;55.160;36.002;2023-05-17T21:34:28;4.43;;;1.40;;
75423;SDS011;64005;55.160;36.002;2023-05-17T21:36:56;4.68;;;1.45;;
75423;SDS011;64005;55.160;36.002;2023-05-17T21:39:25;8.77;;;1.85;;
75423;SDS011;64005;55.160;36.002;2023-05-17T21:41:52;4.78;;;1.48;;
75423;SDS011;64005;55.160;36.002;2023-05-17T21:44:20;4.13;;;1.45;;
75423;SDS011;64005;55.160;36.002;2023-05-17T21:46:47;4.32;;;1.40;;
75423;SDS011;64005;55.160;36.002;2023-05-17T21:49:15;3.97;;;1.30;;
75423;SDS011;64005;55.160;36.002;2023-05-17T21:51:42;7.18;;;1.60;;
75423;SDS011;64005;55.160;36.002;2023-05-17T21:54:10;6.43;;;1.38;;
75423;SDS011;64005;55.160;36.002;2023-05-17T21:56:39;3.10;;;1.17;;
75423;SDS011;64005;55.160;36.002;2023-05-17T21:59:06;5.95;;;1.48;;
75423;SDS011;64005;55.160;36.002;2023-05-17T22:01:34;4.18;;;1.40;;
75423;SDS011;64005;55.160;36.002;2023-05-17T22:04:01;3.97;;;1.55;;
75423;SDS011;64005;55.160;36.002;2023-05-17T22:06:29;3.60;;;1.33;;
75423;SDS011;64005;55.160;36.002;2023-05-17T22:08:57;4.78;;;1.73;;
75423;SDS011;64005;55.160;36.002;2023-05-17T22:11:24;5.25;;;1.20;;
75423;SDS011;64005;55.160;36.002;2023-05-17T22:13:54;3.72;;;1.58;;
75423;SDS011;64005;55.160;36.002;2023-05-17T22:16:22;3.47;;;1.23;;
75423;SDS011;64005;55.160;36.002;2023-05-17T22:18:50;3.50;;;1.40;;
75423;SDS011;64005;55.160;36.002;2023-05-17T22:21:18;4.22;;;1.52;;
75423;SDS011;64005;55.160;36.002;2023-05-17T22:23:45;3.67;;;1.52;;
75423;SDS011;64005;55.160;36.002;2023-05-17T22:26:13;6.82;;;1.83;;
75423;SDS011;64005;55.160;36.002;2023-05-17T22:28:40;4.45;;;1.60;;
75423;SDS011;64005;55.160;36.002;2023-05-17T22:31:09;4.43;;;1.35;;
75423;SDS011;64005;55.160;36.002;2023-05-17T22:33:39;4.95;;;1.50;;
75423;SDS011;64005;55.160;36.002;2023-05-17T22:36:07;3.80;;;1.60;;
75423;SDS011;64005;55.160;36.002;2023-05-17T22:38:38;4.47;;;1.33;;
75423;SDS011;64005;55.160;36.002;2023-05-17T22:41:07;4.18;;;1.60;;
75423;SDS011;64005;55.160;36.002;2023-05-17T22:43:35;3.58;;;1.35;;
75423;SDS011;64005;55.160;36.002;2023-05-17T22:46:02;3.72;;;1.58;;
75423;SDS011;64005;55.160;36.002;2023-05-17T22:48:32;4.38;;;1.55;;
75423;SDS011;64005;55.160;36.002;2023-05-17T22:51:02;3.60;;;1.50;;
75423;SDS011;64005;55.160;36.002;2023-05-17T22:53:29;5.90;;;1.52;;
75423;SDS011;64005;55.160;36.002;2023-05-17T22:55:57;5.05;;;1.70;;
75423;SDS011;64005;55.160;36.002;2023-05-17T22:58:24;4.32;;;1.48;;
75423;SDS011;64005;55.160;36.002;2023-05-17T23:00:52;3.65;;;1.67;;
75423;SDS011;64005;55.160;36.002;2023-05-17T23:03:20;4.38;;;1.45;;
75423;SDS011;64005;55.160;36.002;2023-05-17T23:05:49;3.00;;;1.25;;
75423;SDS011;64005;55.160;36.002;2023-05-17T23:08:26;6.03;;;1.50;;
75423;SDS011;64005;55.160;36.002;2023-05-17T23:10:54;3.45;;;1.30;;
75423;SDS011;64005;55.160;36.002;2023-05-17T23:13:22;5.00;;;1.90;;
75423;SDS011;64005;55.160;36.002;2023-05-17T23:15:50;3.70;;;1.45;;
75423;SDS011;64005;55.160;36.002;2023-05-17T23:18:18;3.88;;;1.52;;
75423;SDS011;64005;55.160;36.002;2023-05-17T23:20:45;4.18;;;1.33;;
75423;SDS011;64005;55.160;36.002;2023-05-17T23:23:14;6.63;;;1.50;;
75423;SDS011;64005;55.160;36.002;2023-05-17T23:25:42;3.35;;;1.30;;
75423;SDS011;64005;55.160;36.002;2023-05-17T23:28:13;6.22;;;1.70;;
75423;SDS011;64005;55.160;36.002;2023-05-17T23:30:40;3.83;;;1.70;;
75423;SDS011;64005;55.160;36.002;2023-05-17T23:33:10;4.97;;;1.55;;
75423;SDS011;64005;55.160;36.002;2023-05-17T23:35:39;3.95;;;1.38;;
75423;SDS011;64005;55.160;36.002;2023-05-17T23:38:07;4.28;;;1.63;;
75423;SDS011;64005;55.160;36.002;2023-05-17T23:40:39;5.00;;;1.63;;
75423;SDS011;64005;55.160;36.002;2023-05-17T23:43:06;4.40;;;1.70;;
75423;SDS011;64005;55.160;36.002;2023-05-17T23:45:34;3.85;;;1.60;;
75423;SDS011;64005;55.160;36.002;2023-05-17T23:48:02;9.40;;;1.50;;
75423;SDS011;64005;55.160;36.002;2023-05-17T23:50:30;3.92;;;1.40;;
75423;SDS011;64005;55.160;36.002;2023-05-17T23:52:57;4.57;;;1.58;;
75423;SDS011;64005;55.160;36.002;2023-05-17T23:55:28;7.05;;;1.50;;
75423;SDS011;64005;55.160;36.002;2023-05-17T23:57:57;3.45;;;1.50;;
